createdAt,value
2023-01-17T00:02:31.821Z,18.13
2023-01-17T00:07:40.062Z,19.76
2023-01-17T00:12:51.816Z,19.38
2023-01-17T00:17:50.144Z,20.27
2023-01-17T00:22:58.693Z,21.47
2023-01-17T00:28:06.756Z,19.05
2023-01-17T00:33:15.575Z,20.13
2023-01-17T00:38:23.976Z,18.90
2023-01-17T00:43:32.735Z,17.34
2023-01-17T00:48:41.351Z,17.41
2023-01-17T00:53:50.155Z,17.21
2023-01-17T00:58:58.462Z,16.16
2023-01-17T01:04:07.213Z,16.95
2023-01-17T01:09:15.540Z,14.97
2023-01-17T01:14:24.386Z,15.41
2023-01-17T01:19:33.062Z,16.02
2023-01-17T01:24:41.727Z,16.46
2023-01-17T01:29:50.548Z,20.17
2023-01-17T01:34:59.313Z,22.28
2023-01-17T01:40:07.593Z,20.16
2023-01-17T01:45:16.172Z,19.83
2023-01-17T01:50:24.854Z,19.37
2023-01-17T01:55:33.785Z,17.42
2023-01-17T02:00:42.387Z,20.73
2023-01-17T02:05:50.685Z,18.62
2023-01-17T02:10:59.473Z,21.01
2023-01-17T02:16:08.108Z,20.02
2023-01-17T02:21:17.096Z,22.69
2023-01-17T02:26:25.834Z,23.72
2023-01-17T02:31:35.085Z,30.22
2023-01-17T02:36:43.962Z,30.17
2023-01-17T02:41:52.374Z,31.19
2023-01-17T02:47:01.651Z,40.49
2023-01-17T02:52:10.273Z,41.61
2023-01-17T02:57:19.003Z,47.70
2023-01-17T03:02:28.089Z,45.23
2023-01-17T03:07:36.743Z,47.40
2023-01-17T03:12:45.119Z,50.21
2023-01-17T03:17:53.469Z,54.88
2023-01-17T03:23:02.147Z,50.26
2023-01-17T03:28:11.601Z,52.55
2023-01-17T03:33:20.347Z,46.14
2023-01-17T03:38:28.993Z,41.86
2023-01-17T03:43:37.440Z,41.14
2023-01-17T03:48:46.590Z,44.50
2023-01-17T03:53:55.434Z,40.04
2023-01-17T03:59:04.360Z,40.99
2023-01-17T04:04:12.681Z,36.70
2023-01-17T04:09:21.545Z,34.59
2023-01-17T04:14:30.430Z,37.62
2023-01-17T04:19:39.285Z,31.78
2023-01-17T04:24:47.322Z,33.78
2023-01-17T04:29:56.209Z,32.86
2023-01-17T04:35:04.679Z,26.23
2023-01-17T04:40:13.407Z,27.74
2023-01-17T04:45:21.917Z,29.62
2023-01-17T04:50:30.627Z,26.82
2023-01-17T04:55:38.883Z,20.49
2023-01-17T05:00:47.446Z,22.15
2023-01-17T05:05:55.682Z,24.72
2023-01-17T05:11:04.468Z,19.62
2023-01-17T05:16:13.202Z,18.93
2023-01-17T05:21:22.240Z,18.60
2023-01-17T05:26:30.924Z,17.09
2023-01-17T05:31:39.550Z,17.70
2023-01-17T05:36:47.779Z,17.10
2023-01-17T05:41:56.528Z,17.38
2023-01-17T05:47:05.112Z,14.90
2023-01-17T05:52:14.097Z,11.03
2023-01-17T05:57:22.533Z,7.38
2023-01-17T06:02:31.282Z,6.40
2023-01-17T06:07:40.216Z,4.35
2023-01-17T06:12:48.861Z,5.11
2023-01-17T06:17:57.190Z,5.43
2023-01-17T06:23:05.346Z,5.38
2023-01-17T06:28:14.536Z,6.20
2023-01-17T06:33:23.324Z,6.19
2023-01-17T06:38:31.916Z,6.95
2023-01-17T06:43:40.629Z,6.68
2023-01-17T06:48:49.458Z,6.83
2023-01-17T06:53:58.055Z,8.77
2023-01-17T06:59:06.867Z,7.11
2023-01-17T07:04:16.998Z,7.02
2023-01-17T07:09:15.813Z,6.04
2023-01-17T07:14:24.855Z,6.27
2023-01-17T07:19:33.109Z,5.58
2023-01-17T07:24:42.399Z,5.65
2023-01-17T07:29:52.728Z,6.33
2023-01-17T07:34:59.418Z,6.82
2023-01-17T07:40:07.934Z,8.61
2023-01-17T07:45:16.973Z,9.17
2023-01-17T07:50:26.141Z,9.42
2023-01-17T07:55:35.400Z,10.02
2023-01-17T08:00:43.810Z,8.11
2023-01-17T08:05:52.496Z,6.54
2023-01-17T08:11:01.087Z,7.11
2023-01-17T08:16:09.765Z,7.14
2023-01-17T08:21:18.006Z,8.58
2023-01-17T08:26:27.001Z,8.43
2023-01-17T08:31:35.600Z,8.09
2023-01-17T08:36:44.300Z,10.75
2023-01-17T08:41:52.958Z,9.77
2023-01-17T08:47:01.466Z,9.12
2023-01-17T08:52:10.308Z,9.07
2023-01-17T08:57:19.491Z,10.70
2023-01-17T09:02:28.363Z,12.01
2023-01-17T09:07:37.538Z,11.68
2023-01-17T09:12:46.036Z,12.84
2023-01-17T09:17:54.822Z,12.22
2023-01-17T09:23:03.244Z,15.48
2023-01-17T09:28:12.087Z,15.45
2023-01-17T09:33:21.232Z,15.94
2023-01-17T09:38:30.458Z,17.58
2023-01-17T09:43:40.897Z,16.48
2023-01-17T09:48:48.849Z,16.82
2023-01-17T09:53:57.330Z,13.01
2023-01-17T09:59:06.074Z,15.29
2023-01-17T10:04:15.492Z,14.97
2023-01-17T10:09:25.219Z,15.40
2023-01-17T10:14:33.800Z,14.40
2023-01-17T10:19:43.071Z,16.69
2023-01-17T10:24:51.431Z,14.56
2023-01-17T10:30:00.381Z,12.51
2023-01-17T10:35:09.376Z,10.59
2023-01-17T10:40:19.177Z,11.15
2023-01-17T10:45:27.591Z,12.07
2023-01-17T10:50:39.939Z,12.83
2023-01-17T10:55:38.472Z,13.27
2023-01-17T11:00:46.995Z,14.35
2023-01-17T11:05:55.664Z,15.68
2023-01-17T11:11:04.526Z,16.66
2023-01-17T11:16:13.328Z,16.30
2023-01-17T11:21:22.013Z,18.31
2023-01-17T11:26:31.033Z,21.05
2023-01-17T11:31:39.573Z,20.44
2023-01-17T11:36:47.834Z,22.48
2023-01-17T11:41:56.979Z,20.87
2023-01-17T11:47:05.987Z,20.09
2023-01-17T11:52:17.789Z,18.96
2023-01-17T11:57:16.707Z,18.36
2023-01-17T12:02:25.778Z,16.06
2023-01-17T12:07:34.606Z,16.25
2023-01-17T12:12:43.592Z,16.51
2023-01-17T12:17:52.595Z,14.07
2023-01-17T12:23:01.553Z,14.24
2023-01-17T12:28:10.294Z,13.88
2023-01-17T12:33:18.974Z,13.55
2023-01-17T12:38:32.444Z,14.39
2023-01-17T12:43:36.113Z,14.10
2023-01-17T12:48:44.497Z,14.66
2023-01-17T12:53:53.944Z,14.31
2023-01-17T12:59:02.563Z,16.03
2023-01-17T13:04:11.647Z,15.47
2023-01-17T13:09:20.161Z,16.17
2023-01-17T13:14:29.088Z,16.36
2023-01-17T13:19:37.904Z,16.60
2023-01-17T13:24:46.924Z,19.07
2023-01-17T13:29:55.282Z,21.66
2023-01-17T13:35:04.167Z,17.70
2023-01-17T13:40:12.789Z,14.93
2023-01-17T13:45:22.034Z,16.18
2023-01-17T13:50:30.313Z,19.21
2023-01-17T13:55:39.876Z,25.34
2023-01-17T14:00:48.707Z,26.64
2023-01-17T14:05:57.444Z,32.41
2023-01-17T14:11:07.464Z,38.48
2023-01-17T14:16:14.346Z,40.98
2023-01-17T14:21:22.829Z,44.14
2023-01-17T14:26:31.487Z,51.93
2023-01-17T14:31:40.263Z,48.82
2023-01-17T14:36:49.207Z,59.45
2023-01-17T14:41:57.904Z,55.33
2023-01-17T14:47:06.776Z,59.54
2023-01-17T14:52:15.556Z,60.76
2023-01-17T14:57:24.424Z,60.64
2023-01-17T15:02:33.322Z,56.72
2023-01-17T15:07:41.801Z,55.94
2023-01-17T15:12:50.664Z,59.89
2023-01-17T15:17:59.295Z,56.62
2023-01-17T15:23:07.463Z,51.63
2023-01-17T15:28:16.382Z,52.40
2023-01-17T15:33:25.097Z,51.87
2023-01-17T15:38:38.939Z,45.59
2023-01-17T15:43:42.612Z,47.64
2023-01-17T15:48:51.539Z,42.42
2023-01-17T15:54:00.099Z,41.72
2023-01-17T15:59:09.552Z,44.38
2023-01-17T16:04:18.467Z,41.89
2023-01-17T16:09:27.098Z,45.41
2023-01-17T16:14:53.562Z,51.98
2023-01-17T16:19:44.653Z,49.68
2023-01-17T16:24:53.321Z,48.41
2023-01-17T16:30:02.610Z,44.77
2023-01-17T16:35:10.901Z,42.72
2023-01-17T16:40:19.308Z,38.46
2023-01-17T16:45:27.927Z,34.42
2023-01-17T16:50:37.245Z,36.60
2023-01-17T16:55:45.972Z,32.74
2023-01-17T17:00:54.568Z,29.91
2023-01-17T17:06:03.185Z,26.13
2023-01-17T17:11:12.365Z,28.50
2023-01-17T17:16:21.368Z,25.91
2023-01-17T17:21:30.654Z,21.14
2023-01-17T17:26:42.758Z,20.29
2023-01-17T17:31:41.963Z,14.50
2023-01-17T17:36:51.336Z,14.60
2023-01-17T17:42:01.329Z,10.62
2023-01-17T17:47:11.211Z,10.08
2023-01-17T17:52:20.970Z,8.29
2023-01-17T17:57:30.652Z,9.26
2023-01-17T18:02:40.012Z,6.55
2023-01-17T18:07:50.248Z,6.78
2023-01-17T18:12:57.365Z,7.62
2023-01-17T18:18:08.497Z,9.24
2023-01-17T18:23:08.187Z,8.77
2023-01-17T18:28:17.735Z,7.59
2023-01-17T18:33:27.824Z,8.42
2023-01-17T18:38:26.714Z,8.56
2023-01-17T18:43:35.925Z,7.62
2023-01-17T18:48:45.569Z,8.80
2023-01-17T18:53:55.268Z,10.17
2023-01-17T18:59:03.918Z,10.83
2023-01-17T19:04:13.334Z,10.86
2023-01-17T19:09:21.811Z,11.75
2023-01-17T19:14:31.124Z,12.03
2023-01-17T19:19:43.134Z,12.89
2023-01-17T19:24:42.304Z,11.92
2023-01-17T19:29:51.102Z,13.66
2023-01-17T19:35:00.965Z,14.50
2023-01-17T19:40:10.183Z,14.44
2023-01-17T19:45:19.924Z,16.31
2023-01-17T19:50:28.832Z,16.27
2023-01-17T19:55:37.652Z,18.38
2023-01-17T20:00:46.991Z,19.93
2023-01-17T20:05:55.285Z,21.59
2023-01-17T20:11:03.999Z,27.20
2023-01-17T20:16:13.042Z,28.23
2023-01-17T20:21:21.848Z,28.41
2023-01-17T20:26:31.276Z,34.38
2023-01-17T20:31:39.758Z,31.03
2023-01-17T20:36:48.785Z,33.83
2023-01-17T20:41:57.214Z,34.40
2023-01-17T20:47:06.429Z,35.07
2023-01-17T20:52:15.697Z,38.30
2023-01-17T20:57:25.854Z,43.44
2023-01-17T21:02:24.616Z,39.65
2023-01-17T21:07:33.600Z,48.78
2023-01-17T21:12:42.164Z,50.97
2023-01-17T21:17:50.965Z,51.85
2023-01-17T21:22:59.449Z,48.19
2023-01-17T21:28:08.101Z,55.15
2023-01-17T21:33:17.312Z,54.14
2023-01-17T21:38:26.236Z,61.97
2023-01-17T21:43:34.903Z,73.49
2023-01-17T21:48:43.902Z,64.56
2023-01-17T21:53:52.696Z,66.32
2023-01-17T21:59:01.907Z,79.27
2023-01-17T22:04:09.989Z,81.99
2023-01-17T22:09:18.915Z,74.80
2023-01-17T22:14:27.127Z,76.91
2023-01-17T22:19:35.938Z,79.53
2023-01-17T22:24:44.727Z,73.45
2023-01-17T22:29:53.639Z,65.05
2023-01-17T22:35:01.920Z,76.51
2023-01-17T22:40:10.552Z,79.90
2023-01-17T22:45:19.111Z,74.53
2023-01-17T22:50:28.363Z,73.02
2023-01-17T22:55:37.036Z,79.37
2023-01-17T23:00:46.179Z,67.89
2023-01-17T23:05:54.274Z,71.49
2023-01-17T23:11:03.265Z,66.10
2023-01-17T23:16:12.454Z,68.99
2023-01-17T23:21:22.056Z,68.85
2023-01-17T23:26:30.318Z,66.94
2023-01-17T23:31:39.254Z,74.49
2023-01-17T23:36:47.742Z,67.97
2023-01-17T23:41:56.301Z,71.73
2023-01-17T23:47:05.202Z,69.83
2023-01-17T23:52:14.335Z,64.08
2023-01-17T23:57:22.902Z,69.30
